メインページ
METAR-TAF:

METAR-TAF

空港 :

Morrisville-Stowe State Airport

Morrisville, バーモント州, アメリカ合衆国

緯度: 44-32-10N, 経度: 072-36-58W, 海抜: 223m

現時点の気象観測

当レポートは13分前の15:54(UTC)に作成
西/北西の風 7kt、最大17ktの突風を伴う、西からの間で変化する
気温 11°C
湿度 28%
気圧 1011 hPa
視程: 16.1km
高度7500ftの雲はほとんどない

METAR: KMVL 071554Z AUTO 30007G17KT 270V350 10SM FEW075 11/M07 A2985 RMK AO2 SLP113 T01061072

時間: 12:07 (16:07 UTC)


TAF: 見つかりません

4,000以上の空港の気象観測と天気予報(METAR報とTAF報)

利用可能な観測所は地図上に黄色い丸と赤い丸で示す。

丸の上にカーソルを重ねると観測所名を参照できる。

次にクリックすると気象観測と天気予報を参照できる。

マップの切り替え:黒色「×」印の緑ボタンをクリックして拡大、「-」印の緑ボタンをクリックして縮小、緑色の三角印をクリックして隣りの地図に切り替え


METAR-TAF: